sensor_id;sensor_type;location;lat;lon;timestamp;pressure;altitude;pressure_sealevel;temperature;humidity
11880;BME280;5999;43.256;27.816;2022-11-10T00:00:32;101049.59;;;10.55;100.00
11880;BME280;5999;43.256;27.816;2022-11-10T00:03:04;101048.00;;;10.49;100.00
11880;BME280;5999;43.256;27.816;2022-11-10T00:05:32;101050.72;;;10.46;100.00
11880;BME280;5999;43.256;27.816;2022-11-10T00:08:03;101051.47;;;10.51;100.00
11880;BME280;5999;43.256;27.816;2022-11-10T00:10:30;101047.00;;;10.53;100.00
11880;BME280;5999;43.256;27.816;2022-11-10T00:12:59;101051.53;;;10.48;100.00
11880;BME280;5999;43.256;27.816;2022-11-10T00:15:27;101049.75;;;10.50;100.00
11880;BME280;5999;43.256;27.816;2022-11-10T00:18:13;101043.75;;;10.45;100.00
11880;BME280;5999;43.256;27.816;2022-11-10T00:20:40;101040.94;;;10.51;100.00
11880;BME280;5999;43.256;27.816;2022-11-10T00:23:07;101035.66;;;10.51;100.00
11880;BME280;5999;43.256;27.816;2022-11-10T00:25:34;101043.53;;;10.53;100.00
11880;BME280;5999;43.256;27.816;2022-11-10T00:28:01;101042.84;;;10.46;100.00
11880;BME280;5999;43.256;27.816;2022-11-10T00:30:28;101040.56;;;10.35;100.00
11880;BME280;5999;43.256;27.816;2022-11-10T00:32:54;101042.84;;;10.46;100.00
11880;BME280;5999;43.256;27.816;2022-11-10T00:35:22;101037.97;;;10.34;100.00
11880;BME280;5999;43.256;27.816;2022-11-10T00:37:49;101031.16;;;10.26;100.00
11880;BME280;5999;43.256;27.816;2022-11-10T00:40:17;101035.09;;;10.41;100.00
11880;BME280;5999;43.256;27.816;2022-11-10T00:42:44;101041.94;;;10.47;100.00
11880;BME280;5999;43.256;27.816;2022-11-10T00:45:11;101037.41;;;10.52;100.00
11880;BME280;5999;43.256;27.816;2022-11-10T00:47:37;101034.78;;;10.52;100.00
11880;BME280;5999;43.256;27.816;2022-11-10T00:50:05;101041.00;;;10.48;100.00
11880;BME280;5999;43.256;27.816;2022-11-10T00:52:36;101037.50;;;10.49;100.00
11880;BME280;5999;43.256;27.816;2022-11-10T00:55:04;101029.53;;;10.22;100.00
11880;BME280;5999;43.256;27.816;2022-11-10T00:57:30;101035.69;;;10.21;100.00
11880;BME280;5999;43.256;27.816;2022-11-10T00:59:57;101037.47;;;10.21;100.00
11880;BME280;5999;43.256;27.816;2022-11-10T01:02:24;101041.69;;;10.26;100.00
11880;BME280;5999;43.256;27.816;2022-11-10T01:04:51;101032.81;;;10.31;100.00
11880;BME280;5999;43.256;27.816;2022-11-10T01:07:18;101027.91;;;10.18;100.00
11880;BME280;5999;43.256;27.816;2022-11-10T01:09:45;101027.59;;;10.27;100.00
11880;BME280;5999;43.256;27.816;2022-11-10T01:12:12;101028.34;;;10.33;100.00
11880;BME280;5999;43.256;27.816;2022-11-10T01:14:39;101027.59;;;10.27;100.00
11880;BME280;5999;43.256;27.816;2022-11-10T01:17:06;101026.75;;;10.27;100.00
11880;BME280;5999;43.256;27.816;2022-11-10T01:19:33;101031.34;;;10.20;100.00
11880;BME280;5999;43.256;27.816;2022-11-10T01:22:00;101028.75;;;10.19;100.00
11880;BME280;5999;43.256;27.816;2022-11-10T01:24:27;101032.13;;;10.24;100.00
11880;BME280;5999;43.256;27.816;2022-11-10T01:26:54;101020.16;;;10.14;100.00
11880;BME280;5999;43.256;27.816;2022-11-10T01:29:21;101022.84;;;10.12;100.00
11880;BME280;5999;43.256;27.816;2022-11-10T01:31:48;101023.59;;;10.16;100.00
11880;BME280;5999;43.256;27.816;2022-11-10T01:34:15;101020.63;;;10.26;100.00
11880;BME280;5999;43.256;27.816;2022-11-10T01:36:42;101022.63;;;10.18;100.00
11880;BME280;5999;43.256;27.816;2022-11-10T01:39:09;101033.16;;;10.18;100.00
11880;BME280;5999;43.256;27.816;2022-11-10T01:41:35;101021.53;;;10.25;100.00
11880;BME280;5999;43.256;27.816;2022-11-10T01:44:14;101026.91;;;10.22;100.00
11880;BME280;5999;43.256;27.816;2022-11-10T01:46:41;101019.91;;;10.21;100.00
11880;BME280;5999;43.256;27.816;2022-11-10T01:49:09;101018.19;;;10.20;100.00
11880;BME280;5999;43.256;27.816;2022-11-10T01:51:41;101025.06;;;10.24;100.00
11880;BME280;5999;43.256;27.816;2022-11-10T01:54:12;101022.34;;;10.27;100.00
11880;BME280;5999;43.256;27.816;2022-11-10T01:56:48;101025.06;;;10.24;100.00
11880;BME280;5999;43.256;27.816;2022-11-10T01:59:22;101023.34;;;10.23;100.00
11880;BME280;5999;43.256;27.816;2022-11-10T02:01:52;101025.13;;;10.23;100.00
11880;BME280;5999;43.256;27.816;2022-11-10T02:04:20;101022.63;;;10.18;100.00
11880;BME280;5999;43.256;27.816;2022-11-10T02:06:48;101016.44;;;10.19;100.00
11880;BME280;5999;43.256;27.816;2022-11-10T02:09:16;101018.00;;;10.26;100.00
11880;BME280;5999;43.256;27.816;2022-11-10T02:11:44;101019.19;;;10.16;100.00
11880;BME280;5999;43.256;27.816;2022-11-10T02:14:12;101023.25;;;10.26;100.00
11880;BME280;5999;43.256;27.816;2022-11-10T02:16:41;101029.72;;;10.16;100.00
11880;BME280;5999;43.256;27.816;2022-11-10T02:19:14;101026.09;;;10.20;100.00
11880;BME280;5999;43.256;27.816;2022-11-10T02:21:42;101029.75;;;10.15;100.00
11880;BME280;5999;43.256;27.816;2022-11-10T02:24:09;101036.66;;;10.19;100.00
11880;BME280;5999;43.256;27.816;2022-11-10T02:26:42;101028.09;;;10.12;100.00
11880;BME280;5999;43.256;27.816;2022-11-10T02:29:09;101032.53;;;10.10;100.00
11880;BME280;5999;43.256;27.816;2022-11-10T02:31:36;101036.00;;;10.12;100.00
11880;BME280;5999;43.256;27.816;2022-11-10T02:34:03;101024.47;;;10.16;100.00
11880;BME280;5999;43.256;27.816;2022-11-10T02:36:30;101029.72;;;10.16;100.00
11880;BME280;5999;43.256;27.816;2022-11-10T02:38:58;101035.78;;;10.18;100.00
11880;BME280;5999;43.256;27.816;2022-11-10T02:41:25;101024.50;;;10.15;100.00
11880;BME280;5999;43.256;27.816;2022-11-10T02:43:53;101032.50;;;10.12;100.00
11880;BME280;5999;43.256;27.816;2022-11-10T02:46:20;101029.91;;;10.10;100.00
11880;BME280;5999;43.256;27.816;2022-11-10T02:48:47;101039.47;;;10.13;100.00
11880;BME280;5999;43.256;27.816;2022-11-10T02:51:13;101025.34;;;10.15;100.00
11880;BME280;5999;43.256;27.816;2022-11-10T02:53:40;101035.75;;;10.20;100.00
11880;BME280;5999;43.256;27.816;2022-11-10T02:56:08;101029.28;;;10.02;100.00
11880;BME280;5999;43.256;27.816;2022-11-10T02:58:35;101022.22;;;10.04;100.00
11880;BME280;5999;43.256;27.816;2022-11-10T03:01:04;101030.94;;;10.04;100.00
11880;BME280;5999;43.256;27.816;2022-11-10T03:03:31;101031.72;;;10.08;100.00
11880;BME280;5999;43.256;27.816;2022-11-10T03:05:58;101024.72;;;10.07;100.00
11880;BME280;5999;43.256;27.816;2022-11-10T03:08:25;101032.88;;;9.99;100.00
11880;BME280;5999;43.256;27.816;2022-11-10T03:10:53;101037.81;;;9.80;100.00
11880;BME280;5999;43.256;27.816;2022-11-10T03:13:21;101028.69;;;9.92;100.00
11880;BME280;5999;43.256;27.816;2022-11-10T03:15:48;101037.25;;;9.99;100.00
11880;BME280;5999;43.256;27.816;2022-11-10T03:18:15;101029.19;;;10.05;100.00
11880;BME280;5999;43.256;27.816;2022-11-10T03:20:45;101039.44;;;10.14;100.00
11880;BME280;5999;43.256;27.816;2022-11-10T03:23:12;101042.75;;;10.19;100.00
11880;BME280;5999;43.256;27.816;2022-11-10T03:25:38;101045.78;;;10.07;100.00
11880;BME280;5999;43.256;27.816;2022-11-10T03:28:05;101034.53;;;10.02;100.00
11880;BME280;5999;43.256;27.816;2022-11-10T03:30:33;101050.81;;;10.15;100.00
11880;BME280;5999;43.256;27.816;2022-11-10T03:33:00;101053.47;;;10.13;100.00
11880;BME280;5999;43.256;27.816;2022-11-10T03:35:27;101053.28;;;10.19;100.00
11880;BME280;5999;43.256;27.816;2022-11-10T03:37:53;101050.00;;;10.13;100.00
11880;BME280;5999;43.256;27.816;2022-11-10T03:40:20;101049.13;;;10.12;100.00
11880;BME280;5999;43.256;27.816;2022-11-10T03:42:47;101050.97;;;10.10;100.00
11880;BME280;5999;43.256;27.816;2022-11-10T03:45:14;101053.75;;;10.05;100.00
11880;BME280;5999;43.256;27.816;2022-11-10T03:47:44;101063.19;;;10.11;100.00
11880;BME280;5999;43.256;27.816;2022-11-10T03:50:12;101056.22;;;10.10;100.00
11880;BME280;5999;43.256;27.816;2022-11-10T03:52:39;101057.03;;;10.12;100.00
11880;BME280;5999;43.256;27.816;2022-11-10T03:55:06;101051.81;;;10.11;100.00
11880;BME280;5999;43.256;27.816;2022-11-10T03:57:33;101059.66;;;10.12;100.00
11880;BME280;5999;43.256;27.816;2022-11-10T04:00:00;101053.75;;;10.05;100.00
11880;BME280;5999;43.256;27.816;2022-11-10T04:02:27;101057.03;;;10.12;100.00
11880;BME280;5999;43.256;27.816;2022-11-10T04:04:55;101051.78;;;10.12;100.00
11880;BME280;5999;43.256;27.816;2022-11-10T04:07:40;101052.78;;;10.08;100.00
11880;BME280;5999;43.256;27.816;2022-11-10T04:10:25;101059.84;;;10.06;100.00
11880;BME280;5999;43.256;27.816;2022-11-10T04:12:52;101062.69;;;9.98;100.00
11880;BME280;5999;43.256;27.816;2022-11-10T04:15:37;101053.09;;;9.68;100.00
11880;BME280;5999;43.256;27.816;2022-11-10T04:18:10;101057.91;;;9.52;100.00
11880;BME280;5999;43.256;27.816;2022-11-10T04:20:47;101059.19;;;9.68;100.00
11880;BME280;5999;43.256;27.816;2022-11-10T04:23:15;101066.91;;;9.74;100.00
11880;BME280;5999;43.256;27.816;2022-11-10T04:25:57;101068.78;;;9.71;100.00
11880;BME280;5999;43.256;27.816;2022-11-10T04:28:43;101070.34;;;9.76;100.00
11880;BME280;5999;43.256;27.816;2022-11-10T04:31:11;101073.06;;;9.75;100.00
11880;BME280;5999;43.256;27.816;2022-11-10T04:33:39;101072.00;;;9.80;100.00
11880;BME280;5999;43.256;27.816;2022-11-10T04:36:09;101080.66;;;9.84;100.00
11880;BME280;5999;43.256;27.816;2022-11-10T04:38:37;101081.44;;;9.88;100.00
11880;BME280;5999;43.256;27.816;2022-11-10T04:41:04;101082.28;;;9.88;100.00
11880;BME280;5999;43.256;27.816;2022-11-10T04:43:31;101091.81;;;9.92;100.00
11880;BME280;5999;43.256;27.816;2022-11-10T04:46:00;101085.59;;;9.95;100.00
11880;BME280;5999;43.256;27.816;2022-11-10T04:48:28;101088.97;;;10.00;100.00
11880;BME280;5999;43.256;27.816;2022-11-10T04:50:56;101086.53;;;9.94;100.00
11880;BME280;5999;43.256;27.816;2022-11-10T04:53:23;101083.16;;;9.89;100.00
11880;BME280;5999;43.256;27.816;2022-11-10T04:55:51;101079.53;;;9.93;100.00
11880;BME280;5999;43.256;27.816;2022-11-10T04:58:19;101083.16;;;9.89;100.00
11880;BME280;5999;43.256;27.816;2022-11-10T05:00:45;101080.06;;;9.74;100.00
11880;BME280;5999;43.256;27.816;2022-11-10T05:03:13;101081.69;;;9.78;100.00
11880;BME280;5999;43.256;27.816;2022-11-10T05:05:40;101087.06;;;9.75;100.00
11880;BME280;5999;43.256;27.816;2022-11-10T05:08:07;101090.41;;;9.80;100.00
11880;BME280;5999;43.256;27.816;2022-11-10T05:10:36;101089.41;;;9.84;100.00
11880;BME280;5999;43.256;27.816;2022-11-10T05:13:04;101100.91;;;9.80;100.00
11880;BME280;5999;43.256;27.816;2022-11-10T05:15:31;101107.38;;;10.00;100.00
11880;BME280;5999;43.256;27.816;2022-11-10T05:17:58;101096.53;;;10.11;100.00
11880;BME280;5999;43.256;27.816;2022-11-10T05:20:26;101106.84;;;10.18;100.00
11880;BME280;5999;43.256;27.816;2022-11-10T05:22:53;101107.69;;;10.19;100.00
11880;BME280;5999;43.256;27.816;2022-11-10T05:25:40;101106.00;;;10.18;100.00
11880;BME280;5999;43.256;27.816;2022-11-10T05:28:09;101120.66;;;10.25;100.00
11880;BME280;5999;43.256;27.816;2022-11-10T05:30:36;101121.81;;;10.46;100.00
11880;BME280;5999;43.256;27.816;2022-11-10T05:33:04;101126.63;;;10.61;100.00
11880;BME280;5999;43.256;27.816;2022-11-10T05:35:31;101136.75;;;10.74;100.00
11880;BME280;5999;43.256;27.816;2022-11-10T05:37:58;101131.94;;;10.86;100.00
11880;BME280;5999;43.256;27.816;2022-11-10T05:40:25;101134.94;;;11.29;100.00
11880;BME280;5999;43.256;27.816;2022-11-10T05:42:53;101147.63;;;12.18;100.00
11880;BME280;5999;43.256;27.816;2022-11-10T05:45:23;101157.94;;;13.96;100.00
11880;BME280;5999;43.256;27.816;2022-11-10T05:47:51;101169.59;;;16.11;100.00
11880;BME280;5999;43.256;27.816;2022-11-10T05:50:20;101157.84;;;18.14;100.00
11880;BME280;5999;43.256;27.816;2022-11-10T05:52:49;101080.88;;;19.69;100.00
11880;BME280;5999;43.256;27.816;2022-11-10T05:55:18;101052.13;;;20.35;100.00
11880;BME280;5999;43.256;27.816;2022-11-10T05:57:46;101041.94;;;20.64;100.00
11880;BME280;5999;43.256;27.816;2022-11-10T06:00:16;101039.31;;;21.11;100.00
11880;BME280;5999;43.256;27.816;2022-11-10T06:02:43;61279.22;;;-145.32;100.00
11880;BME280;5999;43.256;27.816;2022-11-10T06:05:10;101054.44;;;24.14;80.96
11880;BME280;5999;43.256;27.816;2022-11-10T06:07:38;101059.88;;;25.31;65.10
11880;BME280;5999;43.256;27.816;2022-11-10T06:10:05;101065.81;;;26.55;57.86
11880;BME280;5999;43.256;27.816;2022-11-10T06:12:32;101074.38;;;28.17;49.67
11880;BME280;5999;43.256;27.816;2022-11-10T06:14:59;101078.09;;;28.83;45.75
11880;BME280;5999;43.256;27.816;2022-11-10T06:17:28;101089.38;;;27.43;43.54
11880;BME280;5999;43.256;27.816;2022-11-10T06:19:55;101091.09;;;25.04;47.93
11880;BME280;5999;43.256;27.816;2022-11-10T06:22:22;101094.31;;;23.47;53.23
11880;BME280;5999;43.256;27.816;2022-11-10T06:24:49;101093.94;;;22.23;60.57
11880;BME280;5999;43.256;27.816;2022-11-10T06:27:16;101093.50;;;21.26;69.42
11880;BME280;5999;43.256;27.816;2022-11-10T06:29:42;101095.06;;;20.45;77.54
11880;BME280;5999;43.256;27.816;2022-11-10T06:32:09;101099.06;;;19.90;83.77
11880;BME280;5999;43.256;27.816;2022-11-10T06:34:37;101092.66;;;19.54;91.01
11880;BME280;5999;43.256;27.816;2022-11-10T06:37:04;101096.88;;;19.18;95.29
11880;BME280;5999;43.256;27.816;2022-11-10T06:39:31;101101.69;;;19.13;100.00
11880;BME280;5999;43.256;27.816;2022-11-10T06:41:58;101102.88;;;19.34;100.00
11880;BME280;5999;43.256;27.816;2022-11-10T06:44:25;101091.91;;;20.88;100.00
11880;BME280;5999;43.256;27.816;2022-11-10T06:46:52;101090.00;;;23.35;91.22
11880;BME280;5999;43.256;27.816;2022-11-10T06:49:19;101088.19;;;25.55;67.68
11880;BME280;5999;43.256;27.816;2022-11-10T06:51:46;101099.63;;;27.31;52.21
11880;BME280;5999;43.256;27.816;2022-11-10T06:54:13;101092.63;;;29.48;46.37
11880;BME280;5999;43.256;27.816;2022-11-10T06:56:40;101094.34;;;29.08;40.95
11880;BME280;5999;43.256;27.816;2022-11-10T06:59:07;101093.44;;;29.73;42.47
11880;BME280;5999;43.256;27.816;2022-11-10T07:01:36;101098.88;;;30.98;39.91
11880;BME280;5999;43.256;27.816;2022-11-10T07:04:02;101115.13;;;24.38;50.13
11880;BME280;5999;43.256;27.816;2022-11-10T07:06:30;101107.94;;;25.93;52.98
11880;BME280;5999;43.256;27.816;2022-11-10T07:08:58;101106.97;;;24.59;55.51
11880;BME280;5999;43.256;27.816;2022-11-10T07:11:26;101104.28;;;26.85;55.39
11880;BME280;5999;43.256;27.816;2022-11-10T07:13:52;101104.53;;;29.39;43.98
11880;BME280;5999;43.256;27.816;2022-11-10T07:16:19;101102.16;;;30.94;39.95
11880;BME280;5999;43.256;27.816;2022-11-10T07:18:47;101094.94;;;32.86;37.03
11880;BME280;5999;43.256;27.816;2022-11-10T07:21:13;101098.50;;;34.61;33.45
11880;BME280;5999;43.256;27.816;2022-11-10T07:23:40;101096.97;;;34.32;33.05
11880;BME280;5999;43.256;27.816;2022-11-10T07:26:08;101092.88;;;35.42;32.81
11880;BME280;5999;43.256;27.816;2022-11-10T07:28:35;101097.72;;;35.54;30.98
11880;BME280;5999;43.256;27.816;2022-11-10T07:31:02;101102.31;;;36.32;30.25
11880;BME280;5999;43.256;27.816;2022-11-10T07:33:29;101096.16;;;35.85;30.36
11880;BME280;5999;43.256;27.816;2022-11-10T07:35:57;101100.72;;;36.49;29.63
11880;BME280;5999;43.256;27.816;2022-11-10T07:38:25;101100.88;;;35.31;29.62
11880;BME280;5999;43.256;27.816;2022-11-10T07:40:52;101097.09;;;34.72;31.29
11880;BME280;5999;43.256;27.816;2022-11-10T07:43:20;101104.69;;;29.04;39.14
11880;BME280;5999;43.256;27.816;2022-11-10T07:45:49;101114.47;;;26.91;45.76
11880;BME280;5999;43.256;27.816;2022-11-10T07:48:16;101106.06;;;29.25;42.13
11880;BME280;5999;43.256;27.816;2022-11-10T07:50:43;101109.44;;;28.94;41.86
11880;BME280;5999;43.256;27.816;2022-11-10T07:53:11;101120.50;;;24.47;55.48
11880;BME280;5999;43.256;27.816;2022-11-10T07:55:40;101112.28;;;25.66;54.80
11880;BME280;5999;43.256;27.816;2022-11-10T07:58:07;101121.22;;;19.00;96.70
11880;BME280;5999;43.256;27.816;2022-11-10T08:00:36;101117.91;;;20.75;95.73
11880;BME280;5999;43.256;27.816;2022-11-10T08:03:05;101118.28;;;19.43;100.00
11880;BME280;5999;43.256;27.816;2022-11-10T08:05:32;101111.44;;;19.65;100.00
11880;BME280;5999;43.256;27.816;2022-11-10T08:08:00;101113.66;;;22.88;92.39
11880;BME280;5999;43.256;27.816;2022-11-10T08:10:27;101113.84;;;19.82;100.00
11880;BME280;5999;43.256;27.816;2022-11-10T08:12:54;101111.53;;;20.89;100.00
11880;BME280;5999;43.256;27.816;2022-11-10T08:15:22;101114.81;;;18.76;100.00
11880;BME280;5999;43.256;27.816;2022-11-10T08:17:51;101112.19;;;21.03;100.00
11880;BME280;5999;43.256;27.816;2022-11-10T08:20:18;101111.63;;;21.69;98.25
11880;BME280;5999;43.256;27.816;2022-11-10T08:22:45;101122.31;;;19.11;100.00
11880;BME280;5999;43.256;27.816;2022-11-10T08:25:11;101117.06;;;20.24;100.00
11880;BME280;5999;43.256;27.816;2022-11-10T08:27:39;101117.16;;;19.07;100.00
11880;BME280;5999;43.256;27.816;2022-11-10T08:30:06;101110.66;;;17.28;100.00
11880;BME280;5999;43.256;27.816;2022-11-10T08:32:33;101109.59;;;18.04;100.00
11880;BME280;5999;43.256;27.816;2022-11-10T08:35:01;101109.72;;;19.13;100.00
11880;BME280;5999;43.256;27.816;2022-11-10T08:37:28;101108.75;;;18.18;100.00
11880;BME280;5999;43.256;27.816;2022-11-10T08:39:55;101103.63;;;18.15;100.00
11880;BME280;5999;43.256;27.816;2022-11-10T08:42:22;101112.00;;;17.21;100.00
11880;BME280;5999;43.256;27.816;2022-11-10T08:44:49;101117.28;;;18.37;100.00
11880;BME280;5999;43.256;27.816;2022-11-10T08:47:16;101115.25;;;18.55;100.00
11880;BME280;5999;43.256;27.816;2022-11-10T08:49:43;101120.31;;;16.68;100.00
11880;BME280;5999;43.256;27.816;2022-11-10T08:52:10;101106.28;;;17.13;100.00
11880;BME280;5999;43.256;27.816;2022-11-10T08:54:39;101108.69;;;17.01;100.00
11880;BME280;5999;43.256;27.816;2022-11-10T08:57:06;101108.78;;;17.89;100.00
11880;BME280;5999;43.256;27.816;2022-11-10T08:59:33;101108.06;;;18.70;100.00
11880;BME280;5999;43.256;27.816;2022-11-10T09:01:59;101111.69;;;17.56;100.00
11880;BME280;5999;43.256;27.816;2022-11-10T09:04:26;101109.31;;;17.51;100.00
11880;BME280;5999;43.256;27.816;2022-11-10T09:06:53;101111.91;;;17.96;100.00
11880;BME280;5999;43.256;27.816;2022-11-10T09:09:24;101104.00;;;17.21;100.00
11880;BME280;5999;43.256;27.816;2022-11-10T09:11:51;101116.22;;;17.09;100.00
11880;BME280;5999;43.256;27.816;2022-11-10T09:14:19;101104.53;;;17.42;100.00
11880;BME280;5999;43.256;27.816;2022-11-10T09:16:46;101113.53;;;18.54;100.00
11880;BME280;5999;43.256;27.816;2022-11-10T09:19:13;101115.66;;;17.77;100.00
11880;BME280;5999;43.256;27.816;2022-11-10T09:21:40;101113.75;;;17.65;100.00
11880;BME280;5999;43.256;27.816;2022-11-10T09:24:07;101107.72;;;18.89;100.00
11880;BME280;5999;43.256;27.816;2022-11-10T09:26:34;101104.38;;;19.13;100.00
11880;BME280;5999;43.256;27.816;2022-11-10T09:29:01;101096.50;;;19.50;100.00
11880;BME280;5999;43.256;27.816;2022-11-10T09:31:28;101095.63;;;19.36;100.00
11880;BME280;5999;43.256;27.816;2022-11-10T09:33:55;101096.81;;;18.65;100.00
11880;BME280;5999;43.256;27.816;2022-11-10T09:36:22;101103.94;;;18.79;100.00
11880;BME280;5999;43.256;27.816;2022-11-10T09:38:49;101099.91;;;20.77;100.00
11880;BME280;5999;43.256;27.816;2022-11-10T09:41:15;101097.63;;;18.53;100.00
11880;BME280;5999;43.256;27.816;2022-11-10T09:43:48;101093.28;;;19.96;100.00
11880;BME280;5999;43.256;27.816;2022-11-10T09:46:22;101101.31;;;18.92;100.00
11880;BME280;5999;43.256;27.816;2022-11-10T09:48:52;101091.19;;;20.49;100.00
11880;BME280;5999;43.256;27.816;2022-11-10T09:51:24;101095.19;;;19.17;100.00
11880;BME280;5999;43.256;27.816;2022-11-10T09:53:55;101094.94;;;17.54;100.00
11880;BME280;5999;43.256;27.816;2022-11-10T09:56:29;101095.31;;;18.61;100.00
11880;BME280;5999;43.256;27.816;2022-11-10T09:58:59;101096.13;;;18.34;100.00
11880;BME280;5999;43.256;27.816;2022-11-10T10:01:34;101087.69;;;18.96;100.00
11880;BME280;5999;43.256;27.816;2022-11-10T10:04:15;101098.84;;;18.05;100.00
11880;BME280;5999;43.256;27.816;2022-11-10T10:06:50;101094.44;;;18.33;100.00
11880;BME280;5999;43.256;27.816;2022-11-10T10:09:26;101088.50;;;18.01;100.00
11880;BME280;5999;43.256;27.816;2022-11-10T10:12:05;101100.31;;;19.33;100.00
11880;BME280;5999;43.256;27.816;2022-11-10T10:14:52;101096.88;;;19.18;100.00
11880;BME280;5999;43.256;27.816;2022-11-10T10:17:29;101087.88;;;18.93;100.00
11880;BME280;5999;43.256;27.816;2022-11-10T10:20:08;101090.31;;;19.62;100.00
11880;BME280;5999;43.256;27.816;2022-11-10T10:22:53;101091.03;;;18.58;100.00
11880;BME280;5999;43.256;27.816;2022-11-10T10:25:26;101089.97;;;18.34;100.00
11880;BME280;5999;43.256;27.816;2022-11-10T10:27:59;101085.19;;;18.93;100.00
11880;BME280;5999;43.256;27.816;2022-11-10T10:30:29;101081.97;;;19.66;100.00
11880;BME280;5999;43.256;27.816;2022-11-10T10:32:59;101082.13;;;18.45;100.00
11880;BME280;5999;43.256;27.816;2022-11-10T10:35:28;101087.47;;;18.45;100.00
11880;BME280;5999;43.256;27.816;2022-11-10T10:37:57;101070.44;;;18.60;100.00
11880;BME280;5999;43.256;27.816;2022-11-10T10:40:25;101066.53;;;20.70;100.00
11880;BME280;5999;43.256;27.816;2022-11-10T10:42:52;101068.03;;;20.00;100.00
11880;BME280;5999;43.256;27.816;2022-11-10T10:45:22;101069.78;;;19.24;99.96
11880;BME280;5999;43.256;27.816;2022-11-10T10:47:51;101077.06;;;18.13;100.00
11880;BME280;5999;43.256;27.816;2022-11-10T10:50:28;101075.25;;;18.82;100.00
11880;BME280;5999;43.256;27.816;2022-11-10T10:53:12;101057.94;;;18.06;100.00
11880;BME280;5999;43.256;27.816;2022-11-10T10:55:46;101060.31;;;18.80;100.00
11880;BME280;5999;43.256;27.816;2022-11-10T10:58:22;101068.69;;;19.01;100.00
11880;BME280;5999;43.256;27.816;2022-11-10T11:00:51;101062.38;;;18.75;100.00
11880;BME280;5999;43.256;27.816;2022-11-10T11:03:25;101054.94;;;17.84;100.00
11880;BME280;5999;43.256;27.816;2022-11-10T11:06:05;101058.00;;;19.01;100.00
11880;BME280;5999;43.256;27.816;2022-11-10T11:08:32;101053.31;;;19.43;100.00
11880;BME280;5999;43.256;27.816;2022-11-10T11:11:08;101050.25;;;20.12;100.00
11880;BME280;5999;43.256;27.816;2022-11-10T11:13:35;101042.72;;;20.30;100.00
11880;BME280;5999;43.256;27.816;2022-11-10T11:16:04;101045.97;;;19.21;100.00
11880;BME280;5999;43.256;27.816;2022-11-10T11:18:34;101043.06;;;19.75;100.00
11880;BME280;5999;43.256;27.816;2022-11-10T11:21:09;101044.81;;;20.13;98.79
11880;BME280;5999;43.256;27.816;2022-11-10T11:24:05;101046.41;;;19.15;100.00
11880;BME280;5999;43.256;27.816;2022-11-10T11:26:42;101043.06;;;19.11;100.00
11880;BME280;5999;43.256;27.816;2022-11-10T11:29:20;101044.97;;;18.96;100.00
11880;BME280;5999;43.256;27.816;2022-11-10T11:31:54;101040.63;;;18.41;100.00
11880;BME280;5999;43.256;27.816;2022-11-10T11:34:34;101050.09;;;18.99;100.00
11880;BME280;5999;43.256;27.816;2022-11-10T11:37:09;101043.19;;;18.70;100.00
11880;BME280;5999;43.256;27.816;2022-11-10T11:39:51;101039.75;;;20.21;98.45
11880;BME280;5999;43.256;27.816;2022-11-10T11:42:37;101030.00;;;20.93;92.17
11880;BME280;5999;43.256;27.816;2022-11-10T11:45:15;101044.16;;;19.73;92.44
11880;BME280;5999;43.256;27.816;2022-11-10T11:47:58;101043.47;;;19.95;93.07
11880;BME280;5999;43.256;27.816;2022-11-10T11:50:31;101050.75;;;19.67;95.13
11880;BME280;5999;43.256;27.816;2022-11-10T11:53:11;101044.88;;;21.43;92.15
11880;BME280;5999;43.256;27.816;2022-11-10T11:55:57;101041.91;;;19.28;95.93
11880;BME280;5999;43.256;27.816;2022-11-10T11:58:36;101048.31;;;19.77;95.32
11880;BME280;5999;43.256;27.816;2022-11-10T12:01:16;101048.25;;;18.60;100.00
11880;BME280;5999;43.256;27.816;2022-11-10T12:07:01;101051.63;;;19.29;100.00
11880;BME280;5999;43.256;27.816;2022-11-10T12:09:41;101050.06;;;17.91;100.00
11880;BME280;5999;43.256;27.816;2022-11-10T12:12:21;101053.31;;;19.30;100.00
11880;BME280;5999;43.256;27.816;2022-11-10T12:15:00;101060.22;;;18.67;100.00
11880;BME280;5999;43.256;27.816;2022-11-10T12:17:39;101048.16;;;18.89;100.00
11880;BME280;5999;43.256;27.816;2022-11-10T12:20:21;101048.28;;;18.73;100.00
11880;BME280;5999;43.256;27.816;2022-11-10T12:22:56;101049.66;;;18.93;100.00
11880;BME280;5999;43.256;27.816;2022-11-10T12:25:30;101056.31;;;18.04;100.00
11880;BME280;5999;43.256;27.816;2022-11-10T12:28:10;101060.94;;;18.83;100.00
11880;BME280;5999;43.256;27.816;2022-11-10T12:30:41;101045.41;;;19.67;100.00
11880;BME280;5999;43.256;27.816;2022-11-10T12:33:25;101049.44;;;18.56;100.00
11880;BME280;5999;43.256;27.816;2022-11-10T12:35:57;101054.41;;;19.40;100.00
11880;BME280;5999;43.256;27.816;2022-11-10T12:38:37;101055.00;;;19.05;100.00
11880;BME280;5999;43.256;27.816;2022-11-10T12:41:10;101056.47;;;18.30;100.00
11880;BME280;5999;43.256;27.816;2022-11-10T12:43:42;101061.25;;;17.81;100.00
11880;BME280;5999;43.256;27.816;2022-11-10T12:46:12;101062.59;;;18.17;100.00
11880;BME280;5999;43.256;27.816;2022-11-10T12:48:45;101069.75;;;17.74;100.00
11880;BME280;5999;43.256;27.816;2022-11-10T12:51:25;101063.16;;;17.79;100.00
11880;BME280;5999;43.256;27.816;2022-11-10T12:53:54;101069.97;;;17.26;100.00
11880;BME280;5999;43.256;27.816;2022-11-10T12:56:23;101063.00;;;17.68;100.00
11880;BME280;5999;43.256;27.816;2022-11-10T12:59:14;101075.53;;;17.80;100.00